Time;durP1;ratioP1;P1;durP2;ratioP2;P2;SDS_P1;SDS_P2;PMS_P1;PMS_P2;Temp;Humidity;BMP_temperature;BMP_pressure;BME280_temperature;BME280_humidity;BME280_pressure;Samples;Min_cycle;Max_cycle;Signal;HPM_P1;HPM_P2
2023/01/05 00:01:05;;;;;;;3.05;0.60;;;;;;;;;;5095511;28;20409;-87
2023/01/05 00:03:33;;;;;;;2.72;0.82;;;;;;;;;;5095371;28;20495;-88
2023/01/05 00:06:07;;;;;;;1.55;0.73;;;;;;;;;;5093902;28;20051;-86
2023/01/05 00:08:34;;;;;;;3.17;1.13;;;;;;;;;;5095521;28;20146;-87
2023/01/05 00:22:37;;;;;;;5.50;1.10;;;;;;;;;;5096338;28;20545;-87
2023/01/05 00:25:24;;;;;;;5.88;1.00;;;;;;;;;;5095122;28;20048;-87
2023/01/05 00:27:52;;;;;;;2.75;0.68;;;;;;;;;;5095255;28;20139;-87
2023/01/05 00:30:21;;;;;;;2.90;0.63;;;;;;;;;;5095915;28;20534;-86
2023/01/05 00:32:48;;;;;;;4.32;0.82;;;;;;;;;;5094642;28;20062;-86
2023/01/05 00:35:16;;;;;;;3.08;0.65;;;;;;;;;;5094734;28;20044;-87
2023/01/05 00:37:44;;;;;;;3.38;0.80;;;;;;;;;;5094610;28;20062;-87
2023/01/05 00:40:15;;;;;;;3.70;0.75;;;;;;;;;;5094832;28;20052;-87
2023/01/05 00:42:42;;;;;;;1.30;0.60;;;;;;;;;;5094583;28;20040;-86
2023/01/05 00:45:12;;;;;;;1.52;0.70;;;;;;;;;;5094620;28;20066;-87
2023/01/05 00:47:39;;;;;;;3.45;0.73;;;;;;;;;;5094296;28;20070;-87
2023/01/05 00:50:07;;;;;;;2.80;0.73;;;;;;;;;;5094453;28;20062;-87
2023/01/05 00:52:34;;;;;;;3.95;0.73;;;;;;;;;;5094484;28;20108;-87
2023/01/05 00:55:02;;;;;;;2.50;0.73;;;;;;;;;;5094094;28;20054;-86
2023/01/05 00:57:31;;;;;;;4.30;0.68;;;;;;;;;;5094246;28;20044;-87
2023/01/05 01:00:00;;;;;;;1.00;0.50;;;;;;;;;;5094269;28;20122;-87
2023/01/05 01:02:28;;;;;;;1.30;0.40;;;;;;;;;;5094289;28;20051;-87
2023/01/05 01:04:55;;;;;;;0.85;0.45;;;;;;;;;;5094399;28;20047;-87
2023/01/05 01:07:23;;;;;;;2.40;0.50;;;;;;;;;;5094365;28;20075;-87
2023/01/05 01:09:50;;;;;;;2.90;0.38;;;;;;;;;;5094202;28;20139;-87
2023/01/05 01:12:17;;;;;;;1.95;0.43;;;;;;;;;;5094254;28;20048;-87
2023/01/05 01:14:48;;;;;;;2.13;0.47;;;;;;;;;;5093795;28;20054;-87
2023/01/05 01:17:18;;;;;;;0.77;0.30;;;;;;;;;;5093719;28;20080;-87
2023/01/05 01:19:45;;;;;;;0.98;0.32;;;;;;;;;;5094280;28;20055;-87
2023/01/05 01:22:13;;;;;;;1.85;0.60;;;;;;;;;;5093906;28;20051;-87
2023/01/05 01:24:41;;;;;;;0.88;0.20;;;;;;;;;;5094025;28;20139;-87
2023/01/05 01:27:08;;;;;;;0.75;0.55;;;;;;;;;;5093803;28;20090;-88
2023/01/05 01:29:35;;;;;;;1.85;0.40;;;;;;;;;;5093732;28;20554;-87
2023/01/05 01:32:02;;;;;;;1.65;0.40;;;;;;;;;;5093566;28;20048;-87
2023/01/05 01:34:30;;;;;;;2.38;0.30;;;;;;;;;;5093923;28;20047;-88
2023/01/05 01:36:57;;;;;;;1.13;0.30;;;;;;;;;;5093657;28;20047;-87
2023/01/05 01:39:25;;;;;;;3.20;0.40;;;;;;;;;;5093673;28;20044;-88
2023/01/05 01:41:52;;;;;;;1.48;0.30;;;;;;;;;;5093501;28;20070;-87
2023/01/05 01:44:38;;;;;;;1.65;0.43;;;;;;;;;;5093658;28;20060;-88
2023/01/05 01:47:05;;;;;;;1.67;0.50;;;;;;;;;;5093167;28;20044;-87
2023/01/05 01:49:32;;;;;;;1.50;0.43;;;;;;;;;;5093549;28;20421;-86
2023/01/05 01:51:59;;;;;;;2.53;0.40;;;;;;;;;;5093115;28;20048;-88
2023/01/05 01:54:26;;;;;;;3.58;0.63;;;;;;;;;;5093512;28;20055;-88
2023/01/05 01:56:55;;;;;;;0.95;0.40;;;;;;;;;;5093441;28;20048;-88
2023/01/05 01:59:23;;;;;;;0.85;0.60;;;;;;;;;;5093413;28;20044;-88
2023/01/05 02:01:52;;;;;;;1.83;0.60;;;;;;;;;;5093221;28;20142;-88
2023/01/05 02:04:19;;;;;;;1.58;0.60;;;;;;;;;;5093236;28;20070;-88
2023/01/05 02:06:47;;;;;;;2.65;0.68;;;;;;;;;;5092857;28;20044;-89
2023/01/05 02:09:14;;;;;;;2.67;0.63;;;;;;;;;;5092851;28;20477;-88
2023/01/05 02:11:56;;;;;;;2.20;0.50;;;;;;;;;;5093140;28;20492;-90
2023/01/05 02:14:40;;;;;;;2.55;0.60;;;;;;;;;;5093263;28;20051;-91
2023/01/05 02:17:27;;;;;;;1.75;0.50;;;;;;;;;;5093010;28;20125;-91
2023/01/05 02:20:12;;;;;;;3.08;0.60;;;;;;;;;;5093004;28;20055;-91
2023/01/05 02:22:52;;;;;;;1.90;0.70;;;;;;;;;;5093053;28;20052;-92
2023/01/05 02:25:38;;;;;;;4.72;0.95;;;;;;;;;;5093079;28;20076;-92
2023/01/05 02:28:08;;;;;;;1.48;0.95;;;;;;;;;;5092256;28;20052;-92
2023/01/05 02:30:38;;;;;;;5.47;0.80;;;;;;;;;;5092727;28;20131;-93
2023/01/05 02:33:19;;;;;;;5.15;0.65;;;;;;;;;;5093007;28;20052;-93
2023/01/05 02:35:55;;;;;;;3.40;0.70;;;;;;;;;;5092641;28;20051;-93
2023/01/05 02:38:22;;;;;;;3.25;0.90;;;;;;;;;;5093076;28;20047;-93
2023/01/05 02:40:54;;;;;;;6.07;0.60;;;;;;;;;;5093229;28;20056;-93
2023/01/05 02:43:21;;;;;;;1.38;0.50;;;;;;;;;;5092882;28;20050;-92
2023/01/05 02:45:48;;;;;;;5.18;0.88;;;;;;;;;;5092784;28;20161;-92
2023/01/05 02:48:15;;;;;;;3.10;0.65;;;;;;;;;;5092854;28;20457;-92
2023/01/05 02:50:42;;;;;;;4.65;0.68;;;;;;;;;;5092643;28;20044;-92
2023/01/05 02:53:25;;;;;;;1.85;0.47;;;;;;;;;;5092599;28;20052;-92
2023/01/05 02:56:02;;;;;;;1.25;0.52;;;;;;;;;;5092651;28;20381;-91
2023/01/05 02:58:52;;;;;;;2.63;0.70;;;;;;;;;;5092899;28;20135;-92
2023/01/05 03:01:22;;;;;;;2.78;0.70;;;;;;;;;;5085898;28;20067;-92
2023/01/05 03:03:53;;;;;;;1.13;0.57;;;;;;;;;;5093044;28;20056;-92
2023/01/05 03:06:23;;;;;;;5.28;0.82;;;;;;;;;;5092605;28;20051;-91
2023/01/05 03:08:52;;;;;;;2.95;1.10;;;;;;;;;;5093133;28;20052;-92
2023/01/05 03:14:12;;;;;;;3.20;0.77;;;;;;;;;;5093550;28;20044;-92
2023/01/05 03:16:40;;;;;;;5.03;1.08;;;;;;;;;;5092488;28;20062;-91
2023/01/05 03:36:07;;;;;;;6.18;1.30;;;;;;;;;;5093235;28;20044;-88
2023/01/05 03:38:38;;;;;;;6.95;1.45;;;;;;;;;;5092427;28;20052;-89
2023/01/05 03:41:08;;;;;;;5.30;1.15;;;;;;;;;;5096163;28;20048;-88
2023/01/05 03:43:36;;;;;;;4.75;1.25;;;;;;;;;;5096190;28;20056;-89
2023/01/05 03:46:09;;;;;;;9.77;1.60;;;;;;;;;;5095854;28;20477;-89
2023/01/05 03:48:37;;;;;;;7.88;1.55;;;;;;;;;;5095682;28;20113;-88
2023/01/05 03:51:04;;;;;;;14.00;1.38;;;;;;;;;;5095440;28;20050;-89
2023/01/05 03:53:31;;;;;;;8.70;1.67;;;;;;;;;;5095669;28;20397;-89
2023/01/05 03:55:58;;;;;;;9.15;1.92;;;;;;;;;;5095956;28;20052;-89
2023/01/05 03:58:25;;;;;;;10.73;1.90;;;;;;;;;;5095483;28;20051;-88
2023/01/05 04:00:53;;;;;;;14.25;1.75;;;;;;;;;;5095522;28;20051;-88
2023/01/05 04:03:20;;;;;;;11.52;1.88;;;;;;;;;;5095389;28;20044;-88
2023/01/05 04:05:53;;;;;;;8.88;1.77;;;;;;;;;;5095766;28;20062;-88
2023/01/05 04:08:21;;;;;;;9.52;1.83;;;;;;;;;;5095558;28;20048;-89
2023/01/05 04:10:48;;;;;;;13.25;2.10;;;;;;;;;;5094407;28;20072;-89
2023/01/05 04:13:15;;;;;;;9.30;1.75;;;;;;;;;;5095564;28;20062;-89
2023/01/05 04:15:42;;;;;;;12.38;1.65;;;;;;;;;;5094754;28;20067;-88
2023/01/05 04:18:09;;;;;;;8.98;1.50;;;;;;;;;;5095393;28;20502;-88
2023/01/05 04:20:37;;;;;;;11.88;1.98;;;;;;;;;;5095216;28;20051;-89
2023/01/05 04:23:04;;;;;;;8.57;1.77;;;;;;;;;;5095374;28;20048;-88
2023/01/05 04:25:31;;;;;;;8.13;2.33;;;;;;;;;;5095106;28;20056;-87
2023/01/05 04:27:58;;;;;;;9.35;1.75;;;;;;;;;;5095239;28;20541;-88
2023/01/05 04:30:25;;;;;;;9.90;1.73;;;;;;;;;;5094991;28;20443;-88
2023/01/05 04:32:53;;;;;;;9.63;1.83;;;;;;;;;;5094645;28;20046;-88
2023/01/05 04:35:20;;;;;;;9.82;2.08;;;;;;;;;;5094936;28;20052;-88
2023/01/05 04:37:47;;;;;;;15.55;2.55;;;;;;;;;;5095063;28;20106;-88
2023/01/05 04:40:14;;;;;;;7.45;1.80;;;;;;;;;;5094930;28;20404;-88
2023/01/05 04:42:41;;;;;;;8.27;1.73;;;;;;;;;;5095035;28;20539;-88
2023/01/05 04:45:09;;;;;;;13.35;2.05;;;;;;;;;;5094531;28;20058;-89
2023/01/05 04:47:36;;;;;;;11.25;1.90;;;;;;;;;;5094752;28;20058;-88
2023/01/05 04:50:04;;;;;;;13.32;2.38;;;;;;;;;;5094765;28;20048;-89
2023/01/05 04:52:33;;;;;;;9.57;2.00;;;;;;;;;;5093986;28;20389;-88
2023/01/05 04:55:00;;;;;;;8.45;2.33;;;;;;;;;;5094887;28;20047;-88
2023/01/05 04:57:27;;;;;;;10.00;2.13;;;;;;;;;;5094388;28;20048;-88
2023/01/05 04:59:55;;;;;;;9.38;1.88;;;;;;;;;;5094477;28;20040;-88
2023/01/05 05:02:22;;;;;;;13.95;2.30;;;;;;;;;;5094541;28;20055;-88
2023/01/05 05:04:49;;;;;;;13.80;2.45;;;;;;;;;;5094411;28;20078;-88
2023/01/05 05:07:17;;;;;;;11.45;2.03;;;;;;;;;;5094464;28;20420;-88
2023/01/05 05:09:44;;;;;;;12.77;2.20;;;;;;;;;;5094464;28;20385;-88
2023/01/05 05:12:12;;;;;;;11.30;2.70;;;;;;;;;;5093893;28;20052;-88
2023/01/05 05:14:39;;;;;;;13.27;1.90;;;;;;;;;;5094207;28;20440;-89
2023/01/05 05:17:06;;;;;;;10.57;2.15;;;;;;;;;;5093864;28;20058;-88
2023/01/05 05:19:33;;;;;;;7.15;1.65;;;;;;;;;;5094238;28;20054;-88
2023/01/05 05:22:01;;;;;;;6.55;1.60;;;;;;;;;;5094490;28;20079;-89
2023/01/05 05:24:28;;;;;;;10.27;2.08;;;;;;;;;;5094201;28;20044;-87
2023/01/05 05:26:56;;;;;;;8.38;1.38;;;;;;;;;;5093850;28;20044;-87
2023/01/05 05:29:23;;;;;;;6.53;1.48;;;;;;;;;;5094147;28;20082;-88
2023/01/05 05:31:51;;;;;;;7.57;1.30;;;;;;;;;;5093774;28;20140;-88
2023/01/05 05:34:18;;;;;;;6.93;1.40;;;;;;;;;;5093863;28;20051;-87
2023/01/05 05:36:45;;;;;;;8.82;1.73;;;;;;;;;;5093679;28;20393;-88
2023/01/05 05:39:13;;;;;;;7.47;1.42;;;;;;;;;;5093629;28;20051;-88
2023/01/05 05:41:40;;;;;;;8.63;1.95;;;;;;;;;;5093579;28;20052;-88
2023/01/05 05:44:07;;;;;;;9.80;2.20;;;;;;;;;;5093754;28;20079;-88
2023/01/05 05:46:34;;;;;;;9.32;1.70;;;;;;;;;;5093412;28;20055;-88
2023/01/05 05:49:02;;;;;;;7.22;1.73;;;;;;;;;;5093670;28;20048;-87
2023/01/05 05:51:29;;;;;;;15.23;2.40;;;;;;;;;;5093479;28;20504;-88
2023/01/05 05:53:56;;;;;;;17.58;2.38;;;;;;;;;;5093320;28;20126;-88
2023/01/05 05:56:23;;;;;;;8.40;1.88;;;;;;;;;;5093403;28;20044;-88
2023/01/05 05:58:50;;;;;;;8.25;1.70;;;;;;;;;;5093613;28;20048;-89
2023/01/05 06:01:26;;;;;;;5.45;1.35;;;;;;;;;;5093533;28;20101;-88
2023/01/05 06:03:54;;;;;;;8.55;1.90;;;;;;;;;;5093214;28;20056;-89
2023/01/05 06:06:21;;;;;;;9.35;1.75;;;;;;;;;;5093070;28;20048;-89
2023/01/05 06:08:48;;;;;;;8.30;1.40;;;;;;;;;;5092935;28;20056;-88
2023/01/05 06:11:16;;;;;;;11.90;1.92;;;;;;;;;;5093157;28;20140;-88
2023/01/05 06:13:43;;;;;;;13.13;2.15;;;;;;;;;;5093082;28;20051;-87
2023/01/05 06:16:10;;;;;;;11.43;1.98;;;;;;;;;;5092869;28;20048;-88
2023/01/05 06:18:38;;;;;;;12.45;2.15;;;;;;;;;;5092851;28;20050;-88
2023/01/05 06:21:05;;;;;;;8.05;2.05;;;;;;;;;;5092889;28;20048;-88
2023/01/05 06:23:32;;;;;;;10.60;2.10;;;;;;;;;;5092901;28;20051;-88
2023/01/05 06:26:00;;;;;;;7.43;1.48;;;;;;;;;;5092965;28;20071;-88
2023/01/05 06:28:27;;;;;;;11.38;2.00;;;;;;;;;;5092870;28;20048;-87
2023/01/05 06:30:54;;;;;;;7.82;2.03;;;;;;;;;;5093072;28;20077;-88
2023/01/05 06:33:21;;;;;;;15.77;2.47;;;;;;;;;;5092142;28;20055;-87
2023/01/05 06:35:48;;;;;;;14.75;2.40;;;;;;;;;;5092774;28;20077;-87
2023/01/05 06:38:16;;;;;;;10.63;2.45;;;;;;;;;;5092997;28;20058;-88
2023/01/05 06:40:46;;;;;;;12.93;2.83;;;;;;;;;;5092784;28;20104;-87
2023/01/05 06:43:13;;;;;;;8.00;2.22;;;;;;;;;;5092747;28;20071;-87
2023/01/05 06:45:40;;;;;;;13.35;2.65;;;;;;;;;;5092549;28;20496;-88
2023/01/05 06:48:09;;;;;;;12.10;3.42;;;;;;;;;;5092575;28;20052;-87
2023/01/05 06:50:37;;;;;;;32.92;11.95;;;;;;;;;;5092722;28;20052;-88
2023/01/05 06:53:04;;;;;;;13.52;2.88;;;;;;;;;;5092341;28;20051;-86
2023/01/05 06:55:31;;;;;;;13.20;3.67;;;;;;;;;;5091602;28;20048;-88
2023/01/05 06:57:58;;;;;;;12.55;2.38;;;;;;;;;;5092221;28;20083;-88
2023/01/05 07:00:27;;;;;;;10.25;2.45;;;;;;;;;;5092441;28;20082;-87
2023/01/05 07:02:57;;;;;;;13.65;1.83;;;;;;;;;;5092741;28;20044;-87
2023/01/05 07:05:24;;;;;;;12.23;2.17;;;;;;;;;;5092386;28;20044;-87
2023/01/05 07:07:52;;;;;;;11.43;1.98;;;;;;;;;;5092388;28;20494;-87
2023/01/05 07:10:19;;;;;;;11.70;2.60;;;;;;;;;;5092517;28;20044;-87
2023/01/05 07:12:46;;;;;;;13.00;2.00;;;;;;;;;;5092223;28;20389;-87
2023/01/05 07:15:13;;;;;;;12.80;2.10;;;;;;;;;;5095916;28;20048;-88
2023/01/05 07:17:41;;;;;;;11.35;2.08;;;;;;;;;;5096106;28;20048;-88
2023/01/05 07:20:08;;;;;;;11.70;2.58;;;;;;;;;;5096312;28;20051;-88
2023/01/05 07:22:35;;;;;;;7.57;1.70;;;;;;;;;;5097248;28;20044;-87
2023/01/05 07:25:02;;;;;;;10.55;1.85;;;;;;;;;;5096417;28;20056;-87
2023/01/05 07:27:30;;;;;;;19.13;2.60;;;;;;;;;;5096157;28;20062;-87
2023/01/05 07:29:57;;;;;;;9.93;1.98;;;;;;;;;;5095967;28;20466;-88
2023/01/05 07:32:25;;;;;;;11.40;2.88;;;;;;;;;;5096000;28;20051;-87
2023/01/05 07:34:52;;;;;;;9.38;2.97;;;;;;;;;;5096030;28;20062;-88
2023/01/05 07:37:23;;;;;;;11.45;2.47;;;;;;;;;;5096149;28;20040;-87
2023/01/05 07:39:51;;;;;;;9.05;2.30;;;;;;;;;;5095850;28;20407;-88
2023/01/05 07:42:18;;;;;;;16.63;2.60;;;;;;;;;;5095892;28;20040;-88
2023/01/05 07:44:45;;;;;;;12.50;2.20;;;;;;;;;;5095831;28;20135;-87
2023/01/05 07:47:12;;;;;;;10.65;2.25;;;;;;;;;;5097182;28;20055;-88
2023/01/05 07:49:39;;;;;;;11.43;1.90;;;;;;;;;;5095863;28;20494;-87
2023/01/05 07:52:07;;;;;;;7.38;2.33;;;;;;;;;;5095833;28;20407;-87
2023/01/05 07:54:34;;;;;;;5.93;2.97;;;;;;;;;;5096053;28;20050;-88
2023/01/05 07:57:01;;;;;;;9.05;2.30;;;;;;;;;;5095712;28;20386;-88
2023/01/05 07:59:28;;;;;;;9.27;1.92;;;;;;;;;;5095846;28;20058;-87
2023/01/05 08:01:56;;;;;;;8.05;2.10;;;;;;;;;;5095709;28;20059;-88
2023/01/05 08:04:23;;;;;;;9.90;1.85;;;;;;;;;;5095613;28;20052;-87
2023/01/05 08:06:51;;;;;;;9.13;2.17;;;;;;;;;;5095560;28;20135;-88
2023/01/05 08:12:04;;;;;;;6.47;1.95;;;;;;;;;;5096407;28;20044;-87
2023/01/05 08:14:31;;;;;;;5.50;1.90;;;;;;;;;;5095380;28;20074;-88
2023/01/05 08:16:58;;;;;;;8.13;1.58;;;;;;;;;;5095082;28;20411;-88
2023/01/05 08:19:26;;;;;;;7.57;1.92;;;;;;;;;;5095203;28;20059;-87
2023/01/05 08:21:53;;;;;;;5.25;1.27;;;;;;;;;;5095200;28;20044;-88
2023/01/05 08:24:20;;;;;;;8.38;2.13;;;;;;;;;;5095225;28;20380;-87
2023/01/05 08:26:49;;;;;;;9.65;1.40;;;;;;;;;;5093864;28;20055;-88
2023/01/05 08:29:17;;;;;;;4.88;1.73;;;;;;;;;;5095252;28;20052;-88
2023/01/05 08:31:44;;;;;;;4.72;1.30;;;;;;;;;;5095033;28;20058;-88
2023/01/05 08:34:11;;;;;;;4.13;1.30;;;;;;;;;;5094861;28;20058;-87
2023/01/05 08:36:41;;;;;;;6.30;1.60;;;;;;;;;;5094712;28;20048;-87
2023/01/05 08:39:10;;;;;;;5.93;1.20;;;;;;;;;;5094779;28;20074;-88
2023/01/05 08:41:37;;;;;;;3.30;1.15;;;;;;;;;;5094699;28;20127;-88
2023/01/05 08:44:06;;;;;;;7.18;1.63;;;;;;;;;;5094592;28;20127;-87
2023/01/05 08:46:35;;;;;;;5.57;1.63;;;;;;;;;;5094514;28;20052;-88
2023/01/05 08:49:03;;;;;;;9.98;1.67;;;;;;;;;;5094659;28;20047;-88
2023/01/05 08:51:31;;;;;;;5.65;1.42;;;;;;;;;;5094753;28;20510;-87
2023/01/05 08:53:58;;;;;;;5.60;1.40;;;;;;;;;;5094313;28;20054;-88
2023/01/05 08:56:26;;;;;;;7.95;1.85;;;;;;;;;;5094528;28;20454;-86
2023/01/05 08:59:00;;;;;;;8.68;2.00;;;;;;;;;;5094427;28;20404;-87
2023/01/05 09:01:28;;;;;;;6.63;1.40;;;;;;;;;;5093627;28;20051;-87
2023/01/05 09:03:55;;;;;;;5.65;1.20;;;;;;;;;;5093325;28;20051;-88
2023/01/05 09:06:24;;;;;;;4.68;1.17;;;;;;;;;;5093873;28;20479;-88
2023/01/05 09:08:51;;;;;;;5.38;1.55;;;;;;;;;;5093665;28;20044;-87
2023/01/05 09:11:20;;;;;;;7.65;1.52;;;;;;;;;;5093897;28;20040;-88
2023/01/05 09:13:57;;;;;;;3.75;1.00;;;;;;;;;;5093760;28;20138;-86
2023/01/05 09:16:28;;;;;;;2.58;0.77;;;;;;;;;;5093836;28;20056;-87
2023/01/05 09:19:15;;;;;;;5.68;1.77;;;;;;;;;;5094012;28;20434;-87
2023/01/05 09:21:43;;;;;;;2.40;1.13;;;;;;;;;;5094048;28;20054;-87
2023/01/05 09:24:11;;;;;;;6.68;1.15;;;;;;;;;;5093829;28;20063;-87
2023/01/05 09:26:40;;;;;;;4.70;1.20;;;;;;;;;;5093712;28;20062;-87
2023/01/05 09:29:07;;;;;;;3.17;1.13;;;;;;;;;;5094202;28;20075;-88
2023/01/05 09:31:34;;;;;;;4.07;1.00;;;;;;;;;;5094000;28;20435;-88
2023/01/05 09:34:01;;;;;;;4.28;0.80;;;;;;;;;;5093659;28;20097;-89
2023/01/05 09:36:28;;;;;;;2.80;0.90;;;;;;;;;;5093666;28;20048;-88
2023/01/05 09:38:56;;;;;;;4.45;0.80;;;;;;;;;;5093585;28;20135;-87
2023/01/05 09:41:26;;;;;;;3.05;0.80;;;;;;;;;;5093417;28;20512;-87
2023/01/05 09:44:05;;;;;;;1.52;0.57;;;;;;;;;;5094112;28;20062;-87
2023/01/05 09:46:34;;;;;;;2.33;0.70;;;;;;;;;;5093727;28;20075;-87
2023/01/05 09:49:03;;;;;;;2.25;0.90;;;;;;;;;;5093051;28;20488;-87
2023/01/05 09:51:30;;;;;;;2.50;0.70;;;;;;;;;;5093154;28;20043;-87
2023/01/05 09:53:58;;;;;;;2.60;0.70;;;;;;;;;;5093209;28;20496;-87
2023/01/05 09:56:39;;;;;;;3.10;0.80;;;;;;;;;;5093529;28;20044;-88
2023/01/05 09:59:29;;;;;;;2.17;1.40;;;;;;;;;;5093233;28;20044;-87
2023/01/05 10:01:59;;;;;;;8.57;1.08;;;;;;;;;;5093236;28;20125;-87
2023/01/05 10:04:28;;;;;;;11.30;1.55;;;;;;;;;;5093076;28;20048;-87
2023/01/05 10:06:59;;;;;;;3.20;1.13;;;;;;;;;;5093488;28;20047;-88
2023/01/05 10:09:38;;;;;;;4.00;1.15;;;;;;;;;;5093330;28;20048;-88
2023/01/05 10:14:57;;;;;;;7.68;0.77;;;;;;;;;;5094023;28;20454;-87
2023/01/05 10:17:24;;;;;;;3.22;1.23;;;;;;;;;;5093013;28;20052;-87
2023/01/05 10:20:36;;;;;;;2.70;0.95;;;;;;;;;;5093257;28;20056;-86
2023/01/05 10:23:07;;;;;;;5.53;1.00;;;;;;;;;;5093240;28;20063;-87
2023/01/05 10:25:38;;;;;;;2.50;0.80;;;;;;;;;;5092435;28;20055;-87
2023/01/05 10:28:23;;;;;;;3.85;0.75;;;;;;;;;;5094133;28;20498;-87
2023/01/05 10:31:01;;;;;;;4.05;0.63;;;;;;;;;;5092881;28;20095;-88
2023/01/05 10:33:48;;;;;;;3.30;0.70;;;;;;;;;;5092710;28;20060;-87
2023/01/05 10:36:21;;;;;;;2.28;0.70;;;;;;;;;;5092956;28;20102;-86
2023/01/05 10:39:27;;;;;;;3.63;0.82;;;;;;;;;;5092650;28;20044;-87
2023/01/05 10:41:58;;;;;;;1.23;0.70;;;;;;;;;;5092484;28;20055;-86
2023/01/05 10:44:25;;;;;;;13.20;1.15;;;;;;;;;;5092964;28;20044;-87
2023/01/05 10:46:53;;;;;;;1.98;0.90;;;;;;;;;;5092905;28;20523;-87
2023/01/05 10:49:29;;;;;;;3.22;1.05;;;;;;;;;;5091989;28;20109;-88
2023/01/05 10:51:57;;;;;;;3.42;0.95;;;;;;;;;;5092563;28;20048;-87
2023/01/05 10:54:42;;;;;;;4.05;0.73;;;;;;;;;;5092317;28;20048;-87
2023/01/05 10:57:28;;;;;;;4.03;0.88;;;;;;;;;;5092559;28;20044;-87
2023/01/05 11:00:09;;;;;;;3.25;0.90;;;;;;;;;;5092452;28;20462;-87
2023/01/05 11:02:48;;;;;;;3.70;0.82;;;;;;;;;;5092610;28;20048;-88
2023/01/05 11:05:27;;;;;;;5.57;1.10;;;;;;;;;;5092736;28;20504;-88
2023/01/05 11:07:59;;;;;;;8.07;1.30;;;;;;;;;;5092876;28;20222;-89
2023/01/05 11:10:34;;;;;;;5.03;1.13;;;;;;;;;;5092550;28;20056;-88
2023/01/05 11:13:06;;;;;;;5.35;0.80;;;;;;;;;;5092364;28;20507;-88
2023/01/05 11:15:39;;;;;;;7.82;1.30;;;;;;;;;;5092998;28;20056;-88
2023/01/05 11:18:07;;;;;;;5.68;1.20;;;;;;;;;;5092632;28;20048;-88
2023/01/05 11:20:34;;;;;;;3.30;1.52;;;;;;;;;;5092494;28;20119;-88
2023/01/05 11:23:01;;;;;;;4.38;1.65;;;;;;;;;;5092196;28;20510;-88
2023/01/05 11:25:29;;;;;;;7.20;1.92;;;;;;;;;;5092269;28;20055;-88
2023/01/05 11:28:08;;;;;;;3.90;1.30;;;;;;;;;;5092546;28;20048;-87
2023/01/05 11:30:37;;;;;;;5.97;1.25;;;;;;;;;;5092466;28;20462;-86
2023/01/05 11:33:11;;;;;;;4.47;1.30;;;;;;;;;;5093109;28;20059;-87
2023/01/05 11:35:46;;;;;;;5.57;1.73;;;;;;;;;;5092117;28;20048;-87
2023/01/05 11:38:24;;;;;;;13.25;1.55;;;;;;;;;;5092316;28;20507;-88
2023/01/05 11:40:51;;;;;;;4.43;1.38;;;;;;;;;;5092363;28;20056;-88
2023/01/05 11:43:19;;;;;;;10.32;1.98;;;;;;;;;;5092308;28;20106;-88
2023/01/05 11:45:49;;;;;;;6.40;1.40;;;;;;;;;;5092087;28;20051;-87
2023/01/05 11:48:19;;;;;;;9.27;2.40;;;;;;;;;;5092091;28;20054;-87
2023/01/05 11:50:52;;;;;;;9.73;1.73;;;;;;;;;;5092044;28;20048;-87
2023/01/05 11:53:31;;;;;;;6.22;1.17;;;;;;;;;;5091869;28;20054;-87
2023/01/05 11:56:03;;;;;;;3.70;1.50;;;;;;;;;;5091979;28;20052;-87
2023/01/05 11:58:44;;;;;;;6.07;1.70;;;;;;;;;;5092021;28;20488;-87
2023/01/05 12:01:20;;;;;;;7.40;1.58;;;;;;;;;;5094665;28;20051;-87
2023/01/05 12:04:06;;;;;;;54.03;26.58;;;;;;;;;;5095670;28;20051;-87
2023/01/05 12:06:34;;;;;;;85.45;43.53;;;;;;;;;;5095119;28;20055;-87
2023/01/05 12:09:04;;;;;;;57.60;31.90;;;;;;;;;;5095452;28;20062;-87
2023/01/05 12:11:39;;;;;;;22.02;11.30;;;;;;;;;;5095562;28;20131;-88
2023/01/05 12:14:27;;;;;;;10.73;2.92;;;;;;;;;;5095479;28;20056;-87
2023/01/05 12:16:55;;;;;;;7.15;2.03;;;;;;;;;;5094798;28;20051;-87
2023/01/05 12:19:26;;;;;;;6.25;2.28;;;;;;;;;;5095190;28;20052;-87
2023/01/05 12:22:05;;;;;;;4.38;1.60;;;;;;;;;;5095559;28;20052;-88
2023/01/05 12:24:39;;;;;;;6.95;3.30;;;;;;;;;;5095163;28;20046;-87
2023/01/05 12:27:13;;;;;;;6.03;3.30;;;;;;;;;;5095062;28;20056;-87
2023/01/05 12:29:43;;;;;;;13.98;4.28;;;;;;;;;;5094943;28;20060;-88
2023/01/05 12:32:47;;;;;;;197.73;76.22;;;;;;;;;;5095075;28;20052;-87
2023/01/05 12:35:37;;;;;;;9.18;4.18;;;;;;;;;;5094970;28;20052;-87
2023/01/05 12:38:13;;;;;;;6.38;1.23;;;;;;;;;;5094730;28;20059;-87
2023/01/05 12:41:01;;;;;;;2.30;0.90;;;;;;;;;;5094785;28;20067;-87
2023/01/05 12:43:58;;;;;;;2.75;0.80;;;;;;;;;;5094949;28;20044;-87
2023/01/05 12:46:41;;;;;;;2.28;0.88;;;;;;;;;;5094619;28;20044;-87
2023/01/05 12:49:15;;;;;;;4.75;1.00;;;;;;;;;;5094922;28;20059;-88
2023/01/05 12:51:48;;;;;;;6.85;1.00;;;;;;;;;;5094787;28;20051;-87
2023/01/05 12:54:29;;;;;;;4.20;1.00;;;;;;;;;;5094585;28;20044;-87
2023/01/05 12:57:14;;;;;;;3.25;0.98;;;;;;;;;;5094537;28;20052;-87
2023/01/05 12:59:52;;;;;;;2.83;0.80;;;;;;;;;;5094546;28;20041;-88
2023/01/05 13:02:27;;;;;;;5.45;1.55;;;;;;;;;;5094592;28;20499;-87
2023/01/05 13:05:00;;;;;;;2.47;1.17;;;;;;;;;;5094547;28;20056;-87
2023/01/05 13:07:46;;;;;;;1.25;0.88;;;;;;;;;;5094340;28;20048;-87
2023/01/05 13:10:30;;;;;;;8.77;1.63;;;;;;;;;;5094288;28;20476;-87
2023/01/05 13:12:59;;;;;;;5.85;1.83;;;;;;;;;;5093912;28;20054;-87
2023/01/05 13:15:32;;;;;;;2.58;1.10;;;;;;;;;;5093781;28;20056;-87
2023/01/05 13:18:06;;;;;;;2.00;0.90;;;;;;;;;;5094574;28;20045;-87
2023/01/05 13:20:33;;;;;;;3.15;1.20;;;;;;;;;;5094389;28;20052;-88
2023/01/05 13:23:06;;;;;;;3.58;1.15;;;;;;;;;;5094364;28;20051;-87
2023/01/05 13:25:42;;;;;;;1.58;0.73;;;;;;;;;;5094221;28;20480;-87
2023/01/05 13:28:17;;;;;;;4.00;1.10;;;;;;;;;;5094123;28;20401;-87
2023/01/05 13:30:51;;;;;;;8.00;1.38;;;;;;;;;;5094151;28;20052;-88
2023/01/05 13:33:38;;;;;;;4.78;0.90;;;;;;;;;;5094396;28;20047;-87
2023/01/05 13:36:17;;;;;;;2.30;1.02;;;;;;;;;;5093894;28;20056;-87
2023/01/05 13:39:03;;;;;;;1.73;0.80;;;;;;;;;;5093979;28;20055;-87
2023/01/05 13:41:57;;;;;;;4.00;1.05;;;;;;;;;;5094037;28;20052;-88
2023/01/05 13:44:40;;;;;;;3.78;1.10;;;;;;;;;;5093661;28;20048;-88
2023/01/05 13:47:11;;;;;;;2.03;1.07;;;;;;;;;;5093703;28;20522;-87
2023/01/05 13:50:03;;;;;;;2.97;1.30;;;;;;;;;;5093800;28;20066;-87
2023/01/05 13:52:30;;;;;;;5.32;3.10;;;;;;;;;;5093755;28;20404;-87
2023/01/05 13:55:00;;;;;;;3.28;1.00;;;;;;;;;;5093397;28;20078;-88
2023/01/05 13:57:30;;;;;;;1.85;1.40;;;;;;;;;;5093613;28;20056;-87
2023/01/05 13:59:59;;;;;;;7.30;2.45;;;;;;;;;;5093728;28;20076;-87
2023/01/05 14:02:40;;;;;;;5.60;1.27;;;;;;;;;;5093781;28;20044;-87
2023/01/05 14:05:15;;;;;;;4.85;1.15;;;;;;;;;;5093602;28;20110;-87
2023/01/05 14:07:42;;;;;;;7.72;1.88;;;;;;;;;;5093422;28;20162;-87
2023/01/05 14:10:21;;;;;;;4.90;1.40;;;;;;;;;;5093584;28;20066;-88
2023/01/05 14:12:49;;;;;;;4.00;1.67;;;;;;;;;;5093434;28;20051;-88
2023/01/05 14:15:36;;;;;;;4.20;1.27;;;;;;;;;;5093005;28;20055;-87
2023/01/05 14:18:04;;;;;;;3.35;1.30;;;;;;;;;;5093129;28;20044;-87
2023/01/05 14:20:36;;;;;;;4.13;1.42;;;;;;;;;;5093283;28;20134;-86
2023/01/05 14:23:28;;;;;;;3.97;1.63;;;;;;;;;;5092708;28;20052;-87
2023/01/05 14:25:57;;;;;;;10.02;4.68;;;;;;;;;;5093476;28;20044;-88
2023/01/05 14:28:27;;;;;;;12.88;4.40;;;;;;;;;;5093018;28;20062;-88
2023/01/05 14:31:13;;;;;;;6.20;2.95;;;;;;;;;;5093196;28;20142;-88
2023/01/05 14:33:46;;;;;;;9.60;3.03;;;;;;;;;;5093239;28;20040;-88
2023/01/05 14:36:29;;;;;;;7.68;2.15;;;;;;;;;;5093218;28;20050;-88
2023/01/05 14:38:57;;;;;;;7.47;2.30;;;;;;;;;;5093170;28;20048;-87
2023/01/05 14:41:25;;;;;;;5.55;1.63;;;;;;;;;;5092926;28;20508;-87
2023/01/05 14:44:03;;;;;;;3.10;1.88;;;;;;;;;;5094188;28;20385;-88
2023/01/05 14:46:47;;;;;;;7.60;2.40;;;;;;;;;;5092684;28;20139;-88
2023/01/05 14:49:33;;;;;;;2.30;1.55;;;;;;;;;;5092730;28;20044;-88
2023/01/05 14:52:02;;;;;;;6.43;2.40;;;;;;;;;;5092882;28;20214;-88
2023/01/05 14:54:41;;;;;;;9.25;3.38;;;;;;;;;;5093791;28;20094;-88
2023/01/05 14:57:20;;;;;;;9.00;3.45;;;;;;;;;;5093744;28;20048;-88
2023/01/05 14:59:49;;;;;;;7.28;2.05;;;;;;;;;;5092637;28;20052;-88
2023/01/05 15:02:21;;;;;;;3.40;1.85;;;;;;;;;;5092796;28;20145;-88
2023/01/05 15:04:50;;;;;;;7.07;3.42;;;;;;;;;;5092863;28;20404;-87
2023/01/05 15:07:33;;;;;;;6.47;3.03;;;;;;;;;;5092501;28;20052;-88
2023/01/05 15:10:15;;;;;;;5.43;2.28;;;;;;;;;;5092429;28;20052;-88
2023/01/05 15:13:02;;;;;;;5.85;2.28;;;;;;;;;;5093455;28;20420;-88
2023/01/05 15:15:52;;;;;;;5.45;2.45;;;;;;;;;;5092064;28;20435;-88
2023/01/05 15:18:31;;;;;;;5.63;2.88;;;;;;;;;;5082421;28;20134;-88
2023/01/05 15:21:08;;;;;;;5.35;2.70;;;;;;;;;;5093257;28;20052;-88
2023/01/05 15:23:54;;;;;;;9.27;2.97;;;;;;;;;;5092165;28;20056;-88
2023/01/05 15:26:27;;;;;;;6.68;3.35;;;;;;;;;;5092993;28;20051;-88
2023/01/05 15:29:00;;;;;;;4.40;2.90;;;;;;;;;;5092044;28;20048;-88
2023/01/05 15:31:39;;;;;;;7.45;3.28;;;;;;;;;;5093203;28;20055;-87
2023/01/05 15:34:23;;;;;;;7.43;3.47;;;;;;;;;;5092265;28;20417;-88
2023/01/05 15:36:53;;;;;;;10.68;3.60;;;;;;;;;;5096037;28;20048;-88
2023/01/05 15:39:22;;;;;;;9.80;3.92;;;;;;;;;;5095902;28;20417;-87
2023/01/05 15:41:50;;;;;;;9.10;3.47;;;;;;;;;;5095899;28;20081;-88
2023/01/05 15:44:18;;;;;;;10.15;3.20;;;;;;;;;;5095704;28;20048;-88